sensor_id;sensor_type;location;lat;lon;timestamp;pressure;altitude;pressure_sealevel;temperature;humidity
76730;BME280;65653;53.106;18.046;2024-02-04T00:00:33;100392.02;;;6.20;93.96
76730;BME280;65653;53.106;18.046;2024-02-04T00:03:20;100378.74;;;6.20;93.73
76730;BME280;65653;53.106;18.046;2024-02-04T00:05:48;100378.94;;;6.22;93.59
76730;BME280;65653;53.106;18.046;2024-02-04T00:08:15;100380.27;;;6.23;93.51
76730;BME280;65653;53.106;18.046;2024-02-04T00:10:43;100387.70;;;6.26;93.13
76730;BME280;65653;53.106;18.046;2024-02-04T00:13:10;100398.05;;;6.21;93.84
76730;BME280;65653;53.106;18.046;2024-02-04T00:15:36;100393.92;;;6.08;96.50
76730;BME280;65653;53.106;18.046;2024-02-04T00:18:03;100395.59;;;5.89;98.96
76730;BME280;65653;53.106;18.046;2024-02-04T00:20:29;100387.77;;;5.73;99.75
76730;BME280;65653;53.106;18.046;2024-02-04T00:22:59;100379.53;;;5.58;100.00
76730;BME280;65653;53.106;18.046;2024-02-04T00:25:26;100362.37;;;5.49;99.85
76730;BME280;65653;53.106;18.046;2024-02-04T00:27:52;100361.68;;;5.41;99.64
76730;BME280;65653;53.106;18.046;2024-02-04T00:30:19;100367.34;;;5.34;99.69
76730;BME280;65653;53.106;18.046;2024-02-04T00:32:45;100369.37;;;5.34;99.26
76730;BME280;65653;53.106;18.046;2024-02-04T00:35:12;100372.91;;;5.32;98.49
76730;BME280;65653;53.106;18.046;2024-02-04T00:37:38;100379.48;;;5.30;98.14
76730;BME280;65653;53.106;18.046;2024-02-04T00:40:05;100387.38;;;5.27;98.08
76730;BME280;65653;53.106;18.046;2024-02-04T00:42:32;100381.88;;;5.24;97.88
76730;BME280;65653;53.106;18.046;2024-02-04T00:44:58;100378.33;;;5.22;98.14
76730;BME280;65653;53.106;18.046;2024-02-04T00:47:25;100379.73;;;5.21;98.36
76730;BME280;65653;53.106;18.046;2024-02-04T00:49:52;100381.98;;;5.23;97.97
76730;BME280;65653;53.106;18.046;2024-02-04T00:52:18;100385.54;;;5.21;98.82
76730;BME280;65653;53.106;18.046;2024-02-04T00:54:45;100386.11;;;5.19;99.96
76730;BME280;65653;53.106;18.046;2024-02-04T00:57:12;100381.22;;;5.17;100.00
76730;BME280;65653;53.106;18.046;2024-02-04T00:59:39;100375.91;;;5.12;100.00
76730;BME280;65653;53.106;18.046;2024-02-04T01:02:06;100371.63;;;5.07;100.00
76730;BME280;65653;53.106;18.046;2024-02-04T01:04:32;100379.34;;;5.07;100.00
76730;BME280;65653;53.106;18.046;2024-02-04T01:06:59;100371.92;;;5.08;100.00
76730;BME280;65653;53.106;18.046;2024-02-04T01:09:28;100370.44;;;5.06;100.00
76730;BME280;65653;53.106;18.046;2024-02-04T01:11:55;100373.48;;;5.07;100.00
76730;BME280;65653;53.106;18.046;2024-02-04T01:14:23;100370.53;;;5.06;100.00
76730;BME280;65653;53.106;18.046;2024-02-04T01:16:49;100372.73;;;5.07;100.00
76730;BME280;65653;53.106;18.046;2024-02-04T01:19:16;100368.77;;;5.08;100.00
76730;BME280;65653;53.106;18.046;2024-02-04T01:21:42;100359.83;;;5.08;100.00
76730;BME280;65653;53.106;18.046;2024-02-04T01:24:10;100353.36;;;5.10;100.00
76730;BME280;65653;53.106;18.046;2024-02-04T01:26:37;100357.83;;;5.09;100.00
76730;BME280;65653;53.106;18.046;2024-02-04T01:29:03;100359.67;;;5.11;100.00
76730;BME280;65653;53.106;18.046;2024-02-04T01:31:30;100362.98;;;5.12;100.00
76730;BME280;65653;53.106;18.046;2024-02-04T01:33:57;100369.71;;;5.14;99.94
76730;BME280;65653;53.106;18.046;2024-02-04T01:36:23;100362.59;;;5.17;99.17
76730;BME280;65653;53.106;18.046;2024-02-04T01:38:50;100361.58;;;5.21;98.32
76730;BME280;65653;53.106;18.046;2024-02-04T01:41:17;100362.67;;;5.24;97.17
76730;BME280;65653;53.106;18.046;2024-02-04T01:43:44;100356.48;;;5.27;96.34
76730;BME280;65653;53.106;18.046;2024-02-04T01:46:12;100360.36;;;5.31;95.58
76730;BME280;65653;53.106;18.046;2024-02-04T01:48:39;100363.23;;;5.39;93.93
76730;BME280;65653;53.106;18.046;2024-02-04T01:51:06;100359.50;;;5.52;92.93
76730;BME280;65653;53.106;18.046;2024-02-04T01:53:34;100345.85;;;5.56;92.50
76730;BME280;65653;53.106;18.046;2024-02-04T01:56:04;100336.59;;;5.60;91.24
76730;BME280;65653;53.106;18.046;2024-02-04T01:58:31;100344.17;;;5.64;90.73
76730;BME280;65653;53.106;18.046;2024-02-04T02:00:58;100345.50;;;5.62;90.52
76730;BME280;65653;53.106;18.046;2024-02-04T02:03:26;100347.33;;;5.62;90.28
76730;BME280;65653;53.106;18.046;2024-02-04T02:05:54;100340.16;;;5.60;90.00
76730;BME280;65653;53.106;18.046;2024-02-04T02:08:20;100333.89;;;5.59;89.97
76730;BME280;65653;53.106;18.046;2024-02-04T02:10:48;100343.82;;;5.59;89.05
76730;BME280;65653;53.106;18.046;2024-02-04T02:13:19;100358.65;;;5.57;88.25
76730;BME280;65653;53.106;18.046;2024-02-04T02:15:52;100359.29;;;5.57;88.50
76730;BME280;65653;53.106;18.046;2024-02-04T02:18:25;100360.33;;;5.53;88.89
76730;BME280;65653;53.106;18.046;2024-02-04T02:24:14;100360.12;;;5.38;90.68
76730;BME280;65653;53.106;18.046;2024-02-04T02:26:43;100348.04;;;5.30;91.47
76730;BME280;65653;53.106;18.046;2024-02-04T02:29:10;100348.31;;;5.25;92.06
76730;BME280;65653;53.106;18.046;2024-02-04T02:31:38;100353.73;;;5.19;92.80
76730;BME280;65653;53.106;18.046;2024-02-04T02:34:05;100349.27;;;5.12;93.33
76730;BME280;65653;53.106;18.046;2024-02-04T02:36:37;100357.35;;;5.09;93.32
76730;BME280;65653;53.106;18.046;2024-02-04T02:39:15;100348.95;;;5.07;93.41
76730;BME280;65653;53.106;18.046;2024-02-04T02:41:44;100341.55;;;5.06;92.55
76730;BME280;65653;53.106;18.046;2024-02-04T02:44:15;100334.09;;;5.09;91.71
76730;BME280;65653;53.106;18.046;2024-02-04T02:46:42;100331.05;;;5.10;91.52
76730;BME280;65653;53.106;18.046;2024-02-04T02:49:10;100330.38;;;5.09;91.56
76730;BME280;65653;53.106;18.046;2024-02-04T02:51:37;100342.88;;;5.09;91.70
76730;BME280;65653;53.106;18.046;2024-02-04T02:54:03;100351.22;;;5.05;92.10
76730;BME280;65653;53.106;18.046;2024-02-04T02:56:30;100361.84;;;5.01;92.23
76730;BME280;65653;53.106;18.046;2024-02-04T02:58:56;100369.57;;;5.00;92.35
76730;BME280;65653;53.106;18.046;2024-02-04T03:01:23;100366.57;;;5.02;92.09
76730;BME280;65653;53.106;18.046;2024-02-04T03:03:50;100372.80;;;5.03;91.67
76730;BME280;65653;53.106;18.046;2024-02-04T03:06:16;100378.48;;;5.11;90.40
76730;BME280;65653;53.106;18.046;2024-02-04T03:08:43;100382.66;;;5.17;89.61
76730;BME280;65653;53.106;18.046;2024-02-04T03:11:09;100384.36;;;5.23;88.97
76730;BME280;65653;53.106;18.046;2024-02-04T03:13:38;100383.20;;;5.26;88.63
76730;BME280;65653;53.106;18.046;2024-02-04T03:16:12;100383.75;;;5.30;88.14
76730;BME280;65653;53.106;18.046;2024-02-04T03:18:40;100383.45;;;5.32;88.07
76730;BME280;65653;53.106;18.046;2024-02-04T03:21:16;100385.30;;;5.34;87.76
76730;BME280;65653;53.106;18.046;2024-02-04T03:23:44;100383.46;;;5.35;87.29
76730;BME280;65653;53.106;18.046;2024-02-04T03:26:11;100380.55;;;5.37;86.27
76730;BME280;65653;53.106;18.046;2024-02-04T03:28:38;100380.52;;;5.40;85.32
76730;BME280;65653;53.106;18.046;2024-02-04T03:31:05;100381.55;;;5.42;85.11
76730;BME280;65653;53.106;18.046;2024-02-04T03:33:31;100382.60;;;5.42;85.33
76730;BME280;65653;53.106;18.046;2024-02-04T03:35:58;100389.69;;;5.42;85.71
76730;BME280;65653;53.106;18.046;2024-02-04T03:38:24;100382.14;;;5.42;85.36
76730;BME280;65653;53.106;18.046;2024-02-04T03:40:53;100383.40;;;5.42;85.15
76730;BME280;65653;53.106;18.046;2024-02-04T03:43:20;100386.05;;;5.41;85.26
76730;BME280;65653;53.106;18.046;2024-02-04T03:45:47;100393.17;;;5.43;84.43
76730;BME280;65653;53.106;18.046;2024-02-04T03:48:14;100395.44;;;5.42;85.00
76730;BME280;65653;53.106;18.046;2024-02-04T03:50:41;100396.70;;;5.39;84.95
76730;BME280;65653;53.106;18.046;2024-02-04T03:53:08;100399.79;;;5.40;84.83
76730;BME280;65653;53.106;18.046;2024-02-04T03:55:34;100399.61;;;5.40;84.87
76730;BME280;65653;53.106;18.046;2024-02-04T03:58:01;100399.98;;;5.41;84.49
76730;BME280;65653;53.106;18.046;2024-02-04T04:00:30;100396.06;;;5.42;84.59
76730;BME280;65653;53.106;18.046;2024-02-04T04:02:56;100400.05;;;5.42;84.88
76730;BME280;65653;53.106;18.046;2024-02-04T04:05:22;100389.04;;;5.41;84.99
76730;BME280;65653;53.106;18.046;2024-02-04T04:07:49;100373.20;;;5.37;84.82
76730;BME280;65653;53.106;18.046;2024-02-04T04:10:15;100365.52;;;5.34;84.98
76730;BME280;65653;53.106;18.046;2024-02-04T04:12:42;100369.04;;;5.29;85.40
76730;BME280;65653;53.106;18.046;2024-02-04T04:15:09;100368.02;;;5.24;85.96
76730;BME280;65653;53.106;18.046;2024-02-04T04:17:36;100367.14;;;5.22;86.34
76730;BME280;65653;53.106;18.046;2024-02-04T04:20:05;100375.41;;;5.22;86.66
76730;BME280;65653;53.106;18.046;2024-02-04T04:22:32;100369.18;;;5.23;87.07
76730;BME280;65653;53.106;18.046;2024-02-04T04:24:58;100371.27;;;5.24;87.14
76730;BME280;65653;53.106;18.046;2024-02-04T04:27:25;100369.52;;;5.23;87.49
76730;BME280;65653;53.106;18.046;2024-02-04T04:29:53;100364.41;;;5.23;87.74
76730;BME280;65653;53.106;18.046;2024-02-04T04:32:19;100357.11;;;5.22;88.01
76730;BME280;65653;53.106;18.046;2024-02-04T04:34:46;100356.56;;;5.21;88.28
76730;BME280;65653;53.106;18.046;2024-02-04T04:37:12;100353.89;;;5.23;88.48
76730;BME280;65653;53.106;18.046;2024-02-04T04:39:39;100357.17;;;5.23;88.82
76730;BME280;65653;53.106;18.046;2024-02-04T04:42:05;100362.98;;;5.23;88.88
76730;BME280;65653;53.106;18.046;2024-02-04T04:44:32;100352.18;;;5.27;88.63
76730;BME280;65653;53.106;18.046;2024-02-04T04:46:58;100354.17;;;5.31;88.53
76730;BME280;65653;53.106;18.046;2024-02-04T04:49:25;100360.83;;;5.32;88.82
76730;BME280;65653;53.106;18.046;2024-02-04T04:51:51;100360.07;;;5.32;89.00
76730;BME280;65653;53.106;18.046;2024-02-04T04:54:18;100357.61;;;5.31;89.01
76730;BME280;65653;53.106;18.046;2024-02-04T04:56:44;100351.44;;;5.31;89.16
76730;BME280;65653;53.106;18.046;2024-02-04T04:59:11;100349.85;;;5.27;89.35
76730;BME280;65653;53.106;18.046;2024-02-04T05:01:47;100360.04;;;5.26;89.08
76730;BME280;65653;53.106;18.046;2024-02-04T05:04:15;100348.46;;;5.28;89.15
76730;BME280;65653;53.106;18.046;2024-02-04T05:06:42;100344.55;;;5.24;89.10
76730;BME280;65653;53.106;18.046;2024-02-04T05:09:09;100346.65;;;5.22;89.15
76730;BME280;65653;53.106;18.046;2024-02-04T05:11:36;100336.63;;;5.22;89.17
76730;BME280;65653;53.106;18.046;2024-02-04T05:14:02;100340.64;;;5.22;89.31
76730;BME280;65653;53.106;18.046;2024-02-04T05:16:30;100328.03;;;5.20;89.44
76730;BME280;65653;53.106;18.046;2024-02-04T05:18:56;100337.70;;;5.18;89.41
76730;BME280;65653;53.106;18.046;2024-02-04T05:21:23;100334.20;;;5.17;89.71
76730;BME280;65653;53.106;18.046;2024-02-04T05:23:49;100334.96;;;5.12;89.94
76730;BME280;65653;53.106;18.046;2024-02-04T05:26:19;100332.65;;;5.09;90.19
76730;BME280;65653;53.106;18.046;2024-02-04T05:28:45;100330.09;;;5.04;90.33
76730;BME280;65653;53.106;18.046;2024-02-04T05:31:12;100325.70;;;4.99;90.58
76730;BME280;65653;53.106;18.046;2024-02-04T05:33:38;100321.54;;;4.94;90.75
76730;BME280;65653;53.106;18.046;2024-02-04T05:36:06;100322.88;;;4.92;90.69
76730;BME280;65653;53.106;18.046;2024-02-04T05:38:32;100331.80;;;4.91;90.56
76730;BME280;65653;53.106;18.046;2024-02-04T05:40:59;100318.56;;;4.91;90.48
76730;BME280;65653;53.106;18.046;2024-02-04T05:43:25;100312.36;;;4.91;90.35
76730;BME280;65653;53.106;18.046;2024-02-04T05:45:51;100311.20;;;4.89;90.35
76730;BME280;65653;53.106;18.046;2024-02-04T05:48:18;100307.91;;;4.87;90.16
76730;BME280;65653;53.106;18.046;2024-02-04T05:50:44;100314.68;;;4.86;90.03
76730;BME280;65653;53.106;18.046;2024-02-04T05:53:10;100315.58;;;4.86;89.80
76730;BME280;65653;53.106;18.046;2024-02-04T05:55:37;100317.93;;;4.84;89.46
76730;BME280;65653;53.106;18.046;2024-02-04T05:58:04;100314.52;;;4.79;89.71
76730;BME280;65653;53.106;18.046;2024-02-04T06:00:30;100314.66;;;4.75;89.56
76730;BME280;65653;53.106;18.046;2024-02-04T06:02:57;100315.48;;;4.73;89.36
76730;BME280;65653;53.106;18.046;2024-02-04T06:05:23;100321.48;;;4.71;89.24
76730;BME280;65653;53.106;18.046;2024-02-04T06:07:50;100317.33;;;4.74;88.85
76730;BME280;65653;53.106;18.046;2024-02-04T06:10:16;100316.04;;;4.74;88.65
76730;BME280;65653;53.106;18.046;2024-02-04T06:12:44;100315.22;;;4.73;88.48
76730;BME280;65653;53.106;18.046;2024-02-04T06:15:14;100319.46;;;4.67;88.94
76730;BME280;65653;53.106;18.046;2024-02-04T06:17:41;100308.81;;;4.61;89.00
76730;BME280;65653;53.106;18.046;2024-02-04T06:20:08;100313.12;;;4.62;89.13
76730;BME280;65653;53.106;18.046;2024-02-04T06:22:35;100314.21;;;4.56;89.56
76730;BME280;65653;53.106;18.046;2024-02-04T06:25:04;100314.61;;;4.51;89.88
76730;BME280;65653;53.106;18.046;2024-02-04T06:27:31;100317.36;;;4.46;90.42
76730;BME280;65653;53.106;18.046;2024-02-04T06:29:58;100320.29;;;4.41;90.74
76730;BME280;65653;53.106;18.046;2024-02-04T06:32:24;100316.90;;;4.37;91.02
76730;BME280;65653;53.106;18.046;2024-02-04T06:34:51;100322.44;;;4.38;91.07
76730;BME280;65653;53.106;18.046;2024-02-04T06:37:18;100321.75;;;4.41;91.07
76730;BME280;65653;53.106;18.046;2024-02-04T06:39:44;100318.23;;;4.43;91.15
76730;BME280;65653;53.106;18.046;2024-02-04T06:42:10;100316.79;;;4.45;91.16
76730;BME280;65653;53.106;18.046;2024-02-04T06:44:38;100315.52;;;4.45;91.40
76730;BME280;65653;53.106;18.046;2024-02-04T06:47:04;100320.35;;;4.44;91.51
76730;BME280;65653;53.106;18.046;2024-02-04T06:49:32;100315.61;;;4.45;91.50
76730;BME280;65653;53.106;18.046;2024-02-04T06:51:58;100311.80;;;4.47;91.44
76730;BME280;65653;53.106;18.046;2024-02-04T06:54:25;100311.33;;;4.48;91.39
76730;BME280;65653;53.106;18.046;2024-02-04T06:56:51;100311.21;;;4.48;91.41
76730;BME280;65653;53.106;18.046;2024-02-04T06:59:21;100311.29;;;4.49;91.26
76730;BME280;65653;53.106;18.046;2024-02-04T07:01:47;100311.56;;;4.52;91.18
76730;BME280;65653;53.106;18.046;2024-02-04T07:04:14;100306.79;;;4.52;91.03
76730;BME280;65653;53.106;18.046;2024-02-04T07:06:40;100318.77;;;4.56;90.62
76730;BME280;65653;53.106;18.046;2024-02-04T07:09:07;100316.46;;;4.58;90.63
76730;BME280;65653;53.106;18.046;2024-02-04T07:11:33;100308.73;;;4.59;90.34
76730;BME280;65653;53.106;18.046;2024-02-04T07:14:00;100310.77;;;4.60;90.36
76730;BME280;65653;53.106;18.046;2024-02-04T07:16:27;100305.29;;;4.60;90.20
76730;BME280;65653;53.106;18.046;2024-02-04T07:18:54;100309.35;;;4.61;90.09
76730;BME280;65653;53.106;18.046;2024-02-04T07:21:22;100311.14;;;4.61;90.17
76730;BME280;65653;53.106;18.046;2024-02-04T07:23:48;100304.33;;;4.61;90.34
76730;BME280;65653;53.106;18.046;2024-02-04T07:26:15;100310.39;;;4.62;90.30
76730;BME280;65653;53.106;18.046;2024-02-04T07:28:41;100304.14;;;4.63;90.37
76730;BME280;65653;53.106;18.046;2024-02-04T07:31:08;100287.66;;;4.67;90.31
76730;BME280;65653;53.106;18.046;2024-02-04T07:33:34;100293.63;;;4.71;90.44
76730;BME280;65653;53.106;18.046;2024-02-04T07:36:00;100293.19;;;4.74;90.42
76730;BME280;65653;53.106;18.046;2024-02-04T07:38:27;100285.11;;;4.79;90.35
76730;BME280;65653;53.106;18.046;2024-02-04T07:40:54;100295.13;;;4.84;90.34
76730;BME280;65653;53.106;18.046;2024-02-04T07:43:22;100285.02;;;4.86;90.36
76730;BME280;65653;53.106;18.046;2024-02-04T07:45:48;100280.60;;;4.89;90.33
76730;BME280;65653;53.106;18.046;2024-02-04T07:48:15;100272.07;;;4.95;90.12
76730;BME280;65653;53.106;18.046;2024-02-04T07:50:41;100275.39;;;5.02;89.82
76730;BME280;65653;53.106;18.046;2024-02-04T07:53:07;100274.63;;;5.10;89.59
76730;BME280;65653;53.106;18.046;2024-02-04T07:55:34;100275.33;;;5.18;89.17
76730;BME280;65653;53.106;18.046;2024-02-04T07:58:01;100266.42;;;5.25;88.81
76730;BME280;65653;53.106;18.046;2024-02-04T08:00:27;100273.70;;;5.35;88.54
76730;BME280;65653;53.106;18.046;2024-02-04T08:02:55;100276.95;;;5.46;88.43
76730;BME280;65653;53.106;18.046;2024-02-04T08:05:21;100281.38;;;5.51;88.09
76730;BME280;65653;53.106;18.046;2024-02-04T08:07:48;100285.83;;;5.57;87.89
76730;BME280;65653;53.106;18.046;2024-02-04T08:10:17;100288.80;;;5.60;87.76
76730;BME280;65653;53.106;18.046;2024-02-04T08:12:44;100293.23;;;5.64;87.81
76730;BME280;65653;53.106;18.046;2024-02-04T08:15:16;100284.46;;;5.68;87.89
76730;BME280;65653;53.106;18.046;2024-02-04T08:17:44;100282.43;;;5.73;87.98
76730;BME280;65653;53.106;18.046;2024-02-04T08:20:10;100285.41;;;5.74;87.85
76730;BME280;65653;53.106;18.046;2024-02-04T08:22:37;100275.86;;;5.74;87.87
76730;BME280;65653;53.106;18.046;2024-02-04T08:25:10;100270.74;;;5.74;87.97
76730;BME280;65653;53.106;18.046;2024-02-04T08:27:39;100272.76;;;5.76;88.40
76730;BME280;65653;53.106;18.046;2024-02-04T08:30:09;100269.56;;;5.76;88.75
76730;BME280;65653;53.106;18.046;2024-02-04T08:32:38;100268.09;;;5.76;89.32
76730;BME280;65653;53.106;18.046;2024-02-04T08:35:05;100267.33;;;5.80;89.35
76730;BME280;65653;53.106;18.046;2024-02-04T08:37:32;100267.27;;;5.83;89.31
76730;BME280;65653;53.106;18.046;2024-02-04T08:39:59;100268.45;;;5.86;89.35
76730;BME280;65653;53.106;18.046;2024-02-04T08:42:26;100266.66;;;5.85;89.39
76730;BME280;65653;53.106;18.046;2024-02-04T08:44:53;100267.00;;;5.86;89.53
76730;BME280;65653;53.106;18.046;2024-02-04T08:47:20;100275.04;;;5.90;89.51
76730;BME280;65653;53.106;18.046;2024-02-04T08:49:47;100264.95;;;5.95;89.35
76730;BME280;65653;53.106;18.046;2024-02-04T08:52:14;100270.42;;;5.98;89.18
76730;BME280;65653;53.106;18.046;2024-02-04T08:54:41;100275.71;;;6.01;89.02
76730;BME280;65653;53.106;18.046;2024-02-04T08:57:07;100256.20;;;6.05;88.87
76730;BME280;65653;53.106;18.046;2024-02-04T08:59:34;100244.66;;;6.08;88.80
76730;BME280;65653;53.106;18.046;2024-02-04T09:02:00;100247.09;;;6.09;88.61
76730;BME280;65653;53.106;18.046;2024-02-04T09:04:28;100252.34;;;6.09;88.62
76730;BME280;65653;53.106;18.046;2024-02-04T09:06:54;100246.54;;;6.09;88.52
76730;BME280;65653;53.106;18.046;2024-02-04T09:09:20;100235.35;;;6.10;88.29
76730;BME280;65653;53.106;18.046;2024-02-04T09:11:47;100232.35;;;6.11;88.37
76730;BME280;65653;53.106;18.046;2024-02-04T09:14:14;100226.30;;;6.11;88.48
76730;BME280;65653;53.106;18.046;2024-02-04T09:16:41;100229.00;;;6.15;88.57
76730;BME280;65653;53.106;18.046;2024-02-04T09:19:08;100221.65;;;6.21;88.40
76730;BME280;65653;53.106;18.046;2024-02-04T09:21:34;100213.84;;;6.28;88.32
76730;BME280;65653;53.106;18.046;2024-02-04T09:24:01;100219.46;;;6.37;88.00
76730;BME280;65653;53.106;18.046;2024-02-04T09:26:27;100220.04;;;6.45;87.81
76730;BME280;65653;53.106;18.046;2024-02-04T09:28:54;100216.98;;;6.59;87.52
76730;BME280;65653;53.106;18.046;2024-02-04T09:31:20;100214.88;;;6.58;87.62
76730;BME280;65653;53.106;18.046;2024-02-04T09:33:49;100212.36;;;6.53;87.36
76730;BME280;65653;53.106;18.046;2024-02-04T09:36:15;100203.77;;;6.57;87.52
76730;BME280;65653;53.106;18.046;2024-02-04T09:38:42;100204.89;;;6.57;87.34
76730;BME280;65653;53.106;18.046;2024-02-04T09:41:09;100207.63;;;6.60;87.38
76730;BME280;65653;53.106;18.046;2024-02-04T09:43:36;100201.88;;;6.64;87.17
76730;BME280;65653;53.106;18.046;2024-02-04T09:46:04;100197.92;;;6.66;87.01
76730;BME280;65653;53.106;18.046;2024-02-04T09:48:32;100201.38;;;6.63;86.89
76730;BME280;65653;53.106;18.046;2024-02-04T09:50:59;100199.23;;;6.63;86.85
76730;BME280;65653;53.106;18.046;2024-02-04T09:53:32;100205.48;;;6.66;86.88
76730;BME280;65653;53.106;18.046;2024-02-04T09:56:02;100203.14;;;6.69;86.53
76730;BME280;65653;53.106;18.046;2024-02-04T09:58:29;100209.75;;;6.67;86.71
76730;BME280;65653;53.106;18.046;2024-02-04T10:00:55;100209.54;;;6.61;87.00
76730;BME280;65653;53.106;18.046;2024-02-04T10:03:23;100207.09;;;6.55;87.00
76730;BME280;65653;53.106;18.046;2024-02-04T10:05:50;100209.48;;;6.53;87.02
76730;BME280;65653;53.106;18.046;2024-02-04T10:08:17;100198.02;;;6.51;86.96
76730;BME280;65653;53.106;18.046;2024-02-04T10:10:44;100201.13;;;6.49;87.31
76730;BME280;65653;53.106;18.046;2024-02-04T10:13:11;100197.21;;;6.50;87.28
76730;BME280;65653;53.106;18.046;2024-02-04T10:15:38;100186.02;;;6.51;87.06
76730;BME280;65653;53.106;18.046;2024-02-04T10:18:06;100184.63;;;6.56;86.58
76730;BME280;65653;53.106;18.046;2024-02-04T10:20:34;100183.73;;;6.59;86.68
76730;BME280;65653;53.106;18.046;2024-02-04T10:23:00;100172.67;;;6.64;86.40
76730;BME280;65653;53.106;18.046;2024-02-04T10:25:27;100165.45;;;6.73;85.54
76730;BME280;65653;53.106;18.046;2024-02-04T10:27:54;100169.48;;;6.73;85.30
76730;BME280;65653;53.106;18.046;2024-02-04T10:30:21;100168.08;;;6.70;85.99
76730;BME280;65653;53.106;18.046;2024-02-04T10:32:51;100171.29;;;6.72;86.10
76730;BME280;65653;53.106;18.046;2024-02-04T10:35:22;100156.55;;;6.82;85.40
76730;BME280;65653;53.106;18.046;2024-02-04T10:37:50;100158.09;;;6.86;84.74
76730;BME280;65653;53.106;18.046;2024-02-04T10:40:17;100164.95;;;6.88;84.56
76730;BME280;65653;53.106;18.046;2024-02-04T10:42:48;100137.48;;;7.00;84.17
76730;BME280;65653;53.106;18.046;2024-02-04T10:45:17;100135.73;;;7.27;83.46
76730;BME280;65653;53.106;18.046;2024-02-04T10:47:54;100130.17;;;7.51;82.44
76730;BME280;65653;53.106;18.046;2024-02-04T10:50:24;100121.35;;;7.95;80.10
76730;BME280;65653;53.106;18.046;2024-02-04T10:52:53;100112.64;;;7.87;80.03
76730;BME280;65653;53.106;18.046;2024-02-04T10:55:26;100104.54;;;7.87;80.12
76730;BME280;65653;53.106;18.046;2024-02-04T10:57:54;100113.08;;;7.76;80.19
76730;BME280;65653;53.106;18.046;2024-02-04T11:00:21;100101.16;;;7.77;80.20
76730;BME280;65653;53.106;18.046;2024-02-04T11:02:49;100088.37;;;7.79;79.87
76730;BME280;65653;53.106;18.046;2024-02-04T11:05:18;100089.35;;;7.88;79.17
76730;BME280;65653;53.106;18.046;2024-02-04T11:07:46;100080.65;;;8.09;78.37
76730;BME280;65653;53.106;18.046;2024-02-04T11:10:14;100078.34;;;8.30;77.52
76730;BME280;65653;53.106;18.046;2024-02-04T11:12:51;100060.52;;;8.50;76.59
76730;BME280;65653;53.106;18.046;2024-02-04T11:15:20;100071.59;;;8.34;76.68
76730;BME280;65653;53.106;18.046;2024-02-04T11:25:45;100065.02;;;8.15;77.42
76730;BME280;65653;53.106;18.046;2024-02-04T11:28:12;100058.27;;;8.03;77.64
76730;BME280;65653;53.106;18.046;2024-02-04T11:30:39;100074.27;;;8.03;77.57
76730;BME280;65653;53.106;18.046;2024-02-04T11:33:06;100054.20;;;7.98;77.56
76730;BME280;65653;53.106;18.046;2024-02-04T11:35:34;100055.05;;;8.04;77.42
76730;BME280;65653;53.106;18.046;2024-02-04T11:38:02;100054.16;;;8.09;77.46
76730;BME280;65653;53.106;18.046;2024-02-04T11:40:31;100048.18;;;8.16;76.75
76730;BME280;65653;53.106;18.046;2024-02-04T11:43:09;100050.29;;;8.12;76.75
76730;BME280;65653;53.106;18.046;2024-02-04T11:45:40;100047.75;;;8.08;76.71
76730;BME280;65653;53.106;18.046;2024-02-04T11:48:08;100041.73;;;7.98;77.01
76730;BME280;65653;53.106;18.046;2024-02-04T11:50:37;100049.19;;;7.89;77.29
76730;BME280;65653;53.106;18.046;2024-02-04T11:53:10;100052.77;;;7.85;77.42
76730;BME280;65653;53.106;18.046;2024-02-04T11:55:41;100044.77;;;7.82;77.13
76730;BME280;65653;53.106;18.046;2024-02-04T11:58:08;100042.48;;;7.79;77.65
76730;BME280;65653;53.106;18.046;2024-02-04T12:00:36;100038.55;;;7.69;78.13
76730;BME280;65653;53.106;18.046;2024-02-04T12:03:03;100046.32;;;7.55;78.84
76730;BME280;65653;53.106;18.046;2024-02-04T12:05:32;100046.73;;;7.41;79.19
76730;BME280;65653;53.106;18.046;2024-02-04T12:08:04;100034.05;;;7.31;79.58
76730;BME280;65653;53.106;18.046;2024-02-04T12:10:33;100040.48;;;7.24;79.43
76730;BME280;65653;53.106;18.046;2024-02-04T12:13:02;100035.42;;;7.20;79.98
76730;BME280;65653;53.106;18.046;2024-02-04T12:15:29;100040.67;;;7.19;80.12
76730;BME280;65653;53.106;18.046;2024-02-04T12:18:09;100040.61;;;7.17;80.21
76730;BME280;65653;53.106;18.046;2024-02-04T12:20:36;100041.05;;;7.13;80.13
76730;BME280;65653;53.106;18.046;2024-02-04T12:23:05;100033.17;;;7.12;80.32
76730;BME280;65653;53.106;18.046;2024-02-04T12:25:32;100043.41;;;7.12;80.32
76730;BME280;65653;53.106;18.046;2024-02-04T12:28:01;100043.92;;;7.18;80.19
76730;BME280;65653;53.106;18.046;2024-02-04T12:30:31;100046.17;;;7.18;79.86
76730;BME280;65653;53.106;18.046;2024-02-04T12:32:59;100049.23;;;7.15;79.88
76730;BME280;65653;53.106;18.046;2024-02-04T12:35:26;100036.21;;;7.18;79.95
76730;BME280;65653;53.106;18.046;2024-02-04T12:37:57;100037.50;;;7.15;79.74
76730;BME280;65653;53.106;18.046;2024-02-04T12:40:28;100034.59;;;7.15;79.60
76730;BME280;65653;53.106;18.046;2024-02-04T12:43:04;100037.45;;;7.14;79.69
76730;BME280;65653;53.106;18.046;2024-02-04T12:45:31;100027.45;;;7.14;79.63
76730;BME280;65653;53.106;18.046;2024-02-04T12:47:58;100026.21;;;7.12;79.66
76730;BME280;65653;53.106;18.046;2024-02-04T12:50:25;100019.24;;;7.10;79.77
76730;BME280;65653;53.106;18.046;2024-02-04T12:53:08;100017.17;;;7.11;79.81
76730;BME280;65653;53.106;18.046;2024-02-04T12:55:37;100012.27;;;7.12;79.66
76730;BME280;65653;53.106;18.046;2024-02-04T13:00:33;100003.54;;;7.10;79.69
76730;BME280;65653;53.106;18.046;2024-02-04T13:03:00;99991.15;;;7.08;79.98
76730;BME280;65653;53.106;18.046;2024-02-04T13:05:27;99985.45;;;7.05;79.82